createdAt,value
2023-01-10T00:03:02.112Z,250.46766
2023-01-10T00:08:03.737Z,252
2023-01-10T00:13:05.398Z,255.11111
2023-01-10T00:18:07.058Z,217.77778
2023-01-10T00:23:08.650Z,220.23318
2023-01-10T00:28:10.271Z,221.47748
2023-01-10T00:33:11.906Z,212.99563
2023-01-10T00:38:13.498Z,187.47826
2023-01-10T00:43:15.177Z,219
2023-01-10T00:48:16.867Z,227.87097
2023-01-10T00:53:18.573Z,231.85047
2023-01-10T00:58:20.238Z,243.02913
2023-01-10T01:03:21.969Z,245.96078
2023-01-10T01:08:23.601Z,235.94313
2023-01-10T01:13:25.258Z,237.33333
2023-01-10T01:18:26.904Z,248.9505
2023-01-10T01:23:28.554Z,234.56604
2023-01-10T01:28:30.367Z,245.96078
2023-01-10T01:33:31.944Z,248.9505
2023-01-10T01:38:33.610Z,252
2023-01-10T01:43:35.221Z,248.9505
2023-01-10T01:48:36.943Z,240.15385
2023-01-10T01:53:38.540Z,234.56604
2023-01-10T01:58:40.131Z,250.46766
2023-01-10T02:03:42.406Z,247.44828
2023-01-10T02:08:44.025Z,256.69036
2023-01-10T02:13:45.606Z,264.83333
2023-01-10T02:18:47.298Z,263.17098
2023-01-10T02:23:49.047Z,259.89744
2023-01-10T02:28:50.674Z,250.46766
2023-01-10T02:33:52.327Z,253.54774
2023-01-10T02:38:53.956Z,256.69036
2023-01-10T02:43:55.601Z,256.69036
2023-01-10T02:48:57.254Z,256.69036
2023-01-10T02:53:58.883Z,248.9505
2023-01-10T02:59:00.638Z,238.73684
2023-01-10T03:04:02.426Z,240.15385
2023-01-10T03:09:04.075Z,255.11111
2023-01-10T03:14:05.716Z,255.11111
2023-01-10T03:19:07.329Z,258.28571
2023-01-10T03:24:08.924Z,245.96078
2023-01-10T03:29:10.646Z,255.11111
2023-01-10T03:34:12.243Z,276.97297
2023-01-10T03:39:13.815Z,264.83333
2023-01-10T03:44:15.477Z,255.11111
2023-01-10T03:49:17.108Z,259.89744
2023-01-10T03:54:18.831Z,259.89744
2023-01-10T03:59:20.542Z,256.69036
2023-01-10T04:04:22.266Z,261.52577
2023-01-10T04:09:23.993Z,248.9505
2023-01-10T04:14:25.667Z,231.85047
2023-01-10T04:19:27.279Z,235.94313
2023-01-10T04:24:28.968Z,231.85047
2023-01-10T04:29:30.566Z,229.18519
2023-01-10T04:34:32.319Z,229.18519
2023-01-10T04:39:34.041Z,229.18519
2023-01-10T04:44:35.601Z,244.4878
2023-01-10T04:49:37.213Z,234.56604
2023-01-10T04:54:38.839Z,222.73303
2023-01-10T04:59:40.499Z,225.27854
2023-01-10T05:04:42.093Z,240.15385
2023-01-10T05:09:43.739Z,229.18519
2023-01-10T05:14:45.385Z,224
2023-01-10T05:19:47.012Z,224
2023-01-10T05:24:48.685Z,225.27854
2023-01-10T05:29:50.368Z,229.18519
2023-01-10T05:34:51.976Z,229.18519
2023-01-10T05:39:53.804Z,214.17544
2023-01-10T05:44:55.496Z,220.23318
2023-01-10T05:49:57.073Z,224
2023-01-10T05:54:58.859Z,225.27854
2023-01-10T06:00:00.624Z,222.73303
2023-01-10T06:05:02.561Z,222.73303
2023-01-10T06:10:04.241Z,222.73303
2023-01-10T06:15:05.854Z,220.23318
2023-01-10T06:25:12.815Z,220.23318
2023-01-10T06:30:14.418Z,221.47748
2023-01-10T06:35:16.443Z,222.73303
2023-01-10T06:40:18.245Z,220.23318
2023-01-10T06:45:19.969Z,225.27854
2023-01-10T06:50:21.725Z,226.56881
2023-01-10T06:55:23.374Z,225.27854
2023-01-10T07:00:25.197Z,226.56881
2023-01-10T07:05:27.031Z,227.87097
2023-01-10T07:10:28.903Z,229.18519
2023-01-10T07:15:30.642Z,227.87097
2023-01-10T07:20:32.305Z,229.18519
2023-01-10T07:25:33.879Z,227.87097
2023-01-10T07:30:35.588Z,230.51163
2023-01-10T07:35:37.177Z,240.15385
2023-01-10T07:40:38.821Z,230.51163
2023-01-10T07:45:40.439Z,241.58454
2023-01-10T07:50:42.076Z,256.69036
2023-01-10T07:55:43.693Z,250.46766
2023-01-10T08:00:45.637Z,234.56604
2023-01-10T08:05:47.302Z,243.02913
2023-01-10T08:10:49.005Z,243.02913
2023-01-10T08:15:50.880Z,240.15385
2023-01-10T08:20:53.599Z,238.73684
2023-01-10T08:25:55.358Z,240.15385
2023-01-10T08:30:57.124Z,240.15385
2023-01-10T08:35:58.834Z,241.58454
2023-01-10T08:41:01.319Z,237.33333
2023-01-10T08:46:03.043Z,248.9505
2023-01-10T08:51:06.149Z,244.4878
2023-01-10T08:56:08.156Z,234.56604
2023-01-10T09:01:23.612Z,234.56604
2023-01-10T09:06:25.626Z,238.73684
2023-01-10T09:11:27.743Z,237.33333
2023-01-10T09:16:34.349Z,235.94313
2023-01-10T09:21:36.031Z,237.33333
2023-01-10T09:26:37.603Z,237.33333
2023-01-10T09:31:39.329Z,235.94313
2023-01-10T09:36:40.983Z,233.20188
2023-01-10T09:41:42.596Z,230.51163
2023-01-10T09:46:44.261Z,229.18519
2023-01-10T09:51:45.924Z,227.87097
2023-01-10T09:56:47.510Z,231.85047
2023-01-10T10:01:49.226Z,233.20188
2023-01-10T10:06:50.911Z,241.58454
2023-01-10T10:11:52.534Z,237.33333
2023-01-10T10:16:54.139Z,240.15385
2023-01-10T10:21:55.859Z,241.58454
2023-01-10T10:26:57.513Z,243.02913
2023-01-10T10:31:59.210Z,244.4878
2023-01-10T10:37:00.923Z,245.96078
2023-01-10T10:42:02.511Z,244.4878
2023-01-10T10:47:04.266Z,248.9505
2023-01-10T10:52:05.906Z,247.44828
2023-01-10T10:57:07.533Z,241.58454
2023-01-10T11:02:09.175Z,243.02913
2023-01-10T11:07:10.820Z,241.58454
2023-01-10T11:12:12.472Z,240.15385
2023-01-10T11:17:14.110Z,247.44828
2023-01-10T11:22:15.705Z,244.4878
2023-01-10T11:27:17.354Z,244.4878
2023-01-10T11:32:18.984Z,243.02913
2023-01-10T11:37:20.634Z,252
2023-01-10T11:42:22.262Z,268.21053
2023-01-10T11:47:25.195Z,259.89744
2023-01-10T11:52:26.884Z,250.46766
2023-01-10T11:57:28.551Z,245.96078
2023-01-10T12:02:30.194Z,250.46766
2023-01-10T12:07:31.857Z,245.96078
2023-01-10T12:12:33.476Z,253.54774
2023-01-10T12:17:35.113Z,248.9505
2023-01-10T12:22:36.840Z,248.9505
2023-01-10T12:27:38.477Z,244.4878
2023-01-10T12:32:40.130Z,245.96078
2023-01-10T12:37:41.804Z,250.46766
2023-01-10T12:42:43.439Z,247.44828
2023-01-10T12:47:45.124Z,248.9505
2023-01-10T12:52:47.087Z,252
2023-01-10T12:57:51.596Z,256.69036
2023-01-10T13:02:53.980Z,253.54774
2023-01-10T13:07:55.675Z,264.83333
2023-01-10T13:12:57.359Z,248.9505
2023-01-10T13:17:59.008Z,258.28571
2023-01-10T13:23:00.641Z,259.89744
2023-01-10T13:28:02.290Z,248.9505
2023-01-10T13:33:03.869Z,258.28571
2023-01-10T13:38:05.514Z,258.28571
2023-01-10T13:43:07.094Z,256.69036
2023-01-10T13:48:08.732Z,245.96078
2023-01-10T13:53:10.357Z,245.96078
2023-01-10T13:58:11.974Z,248.9505
2023-01-10T14:03:13.804Z,247.44828
2023-01-10T14:08:15.438Z,182.75969
2023-01-10T14:13:17.057Z,240.15385
2023-01-10T14:18:18.904Z,240.15385
2023-01-10T14:23:21.356Z,245.96078
2023-01-10T14:28:23.223Z,247.44828
2023-01-10T14:33:25.005Z,238.73684
2023-01-10T14:38:26.917Z,258.28571
2023-01-10T14:43:28.687Z,247.44828
2023-01-10T14:48:30.527Z,240.15385
2023-01-10T14:53:32.436Z,230.51163
2023-01-10T14:58:34.312Z,233.20188
2023-01-10T15:03:39.055Z,231.85047
2023-01-10T15:08:40.723Z,229.18519
2023-01-10T15:13:42.625Z,225.27854
2023-01-10T15:18:44.441Z,231.85047
2023-01-10T15:23:46.278Z,229.18519
2023-01-10T15:28:48.111Z,227.87097
2023-01-10T15:33:49.872Z,227.87097
2023-01-10T15:38:51.668Z,238.73684
2023-01-10T15:43:53.451Z,234.56604
2023-01-10T15:48:55.477Z,243.02913
2023-01-10T15:53:57.281Z,240.15385
2023-01-10T15:58:59.178Z,238.73684
2023-01-10T16:04:01.064Z,234.56604
2023-01-10T16:09:02.964Z,230.51163
2023-01-10T16:14:04.814Z,191.38956
2023-01-10T16:19:06.603Z,203.91561
2023-01-10T16:24:10.752Z,231.85047
2023-01-10T16:29:12.843Z,231.85047
2023-01-10T16:34:14.687Z,230.51163
2023-01-10T16:39:16.522Z,237.33333
2023-01-10T16:44:19.359Z,237.33333
2023-01-10T16:49:21.808Z,231.85047
2023-01-10T16:54:25.632Z,233.20188
2023-01-10T16:59:27.432Z,240.15385
2023-01-10T17:04:29.261Z,243.02913
2023-01-10T17:09:31.155Z,222.73303
2023-01-10T17:14:32.837Z,224
2023-01-10T17:19:34.673Z,227.87097
2023-01-10T17:24:36.593Z,221.47748
2023-01-10T17:29:38.214Z,225.27854
2023-01-10T17:34:39.871Z,234.56604
2023-01-10T17:39:41.488Z,233.20188
2023-01-10T17:44:43.210Z,233.20188
2023-01-10T17:49:44.783Z,230.51163
2023-01-10T17:54:46.711Z,227.87097
2023-01-10T17:59:48.323Z,231.85047
2023-01-10T18:04:49.954Z,235.94313
2023-01-10T18:09:51.553Z,240.15385
2023-01-10T18:14:53.172Z,240.15385
2023-01-10T18:19:54.749Z,234.56604
2023-01-10T18:24:56.411Z,233.20188
2023-01-10T18:29:58.088Z,243.02913
2023-01-10T18:34:59.937Z,263.17098
2023-01-10T18:40:01.559Z,237.33333
2023-01-10T18:45:03.205Z,243.02913
2023-01-10T18:50:05.054Z,269.92593
2023-01-10T18:55:06.645Z,221.47748
2023-01-10T19:00:08.325Z,261.52577
2023-01-10T19:05:09.953Z,276.97297
2023-01-10T19:10:11.560Z,271.65957
2023-01-10T19:15:13.267Z,261.52577
2023-01-10T19:20:14.891Z,256.69036
2023-01-10T19:25:16.717Z,261.52577
2023-01-10T19:30:18.420Z,259.89744
2023-01-10T19:35:20.272Z,263.17098
2023-01-10T19:40:21.864Z,269.92593
2023-01-10T19:45:24.493Z,258.28571
2023-01-10T19:50:26.194Z,256.69036
2023-01-10T19:55:27.940Z,261.52577
2023-01-10T20:00:29.633Z,258.28571
2023-01-10T20:05:31.307Z,253.54774
2023-01-10T20:10:32.979Z,250.46766
2023-01-10T20:15:34.655Z,255.11111
2023-01-10T20:20:36.444Z,258.28571
2023-01-10T20:25:38.191Z,248.9505
2023-01-10T20:30:39.791Z,252
2023-01-10T20:35:41.414Z,252
2023-01-10T20:40:43.267Z,250.46766
2023-01-10T20:45:45.077Z,253.54774
2023-01-10T20:50:46.820Z,263.17098
2023-01-10T20:55:59.167Z,256.69036
2023-01-10T21:01:01.674Z,258.28571
2023-01-10T21:06:03.317Z,276.97297
2023-01-10T21:11:04.962Z,286.22222
2023-01-10T21:16:06.676Z,286.22222
2023-01-10T21:21:08.357Z,269.92593
2023-01-10T21:26:09.986Z,280.61202
2023-01-10T21:31:11.671Z,282.46154
2023-01-10T21:36:13.349Z,259.89744
2023-01-10T21:41:15.237Z,266.51309
2023-01-10T21:46:17.053Z,256.69036
2023-01-10T21:51:18.849Z,273.41176
2023-01-10T21:56:20.541Z,264.83333
2023-01-10T22:01:22.265Z,266.51309
2023-01-10T22:06:24.016Z,276.97297
2023-01-10T22:11:25.628Z,261.52577
2023-01-10T22:16:27.327Z,259.89744
2023-01-10T22:21:29.102Z,275.1828
2023-01-10T22:26:30.730Z,263.17098
2023-01-10T22:31:32.518Z,258.28571
2023-01-10T22:36:34.393Z,273.41176
2023-01-10T22:41:36.037Z,266.51309
2023-01-10T22:46:37.681Z,263.17098
2023-01-10T22:51:39.316Z,248.9505
2023-01-10T22:56:41.113Z,261.52577
2023-01-10T23:01:42.727Z,258.28571
2023-01-10T23:06:44.462Z,222.73303
2023-01-10T23:11:46.322Z,225.27854
2023-01-10T23:16:48.165Z,219
2023-01-10T23:21:49.854Z,224
2023-01-10T23:26:51.498Z,201.74059
2023-01-10T23:31:53.231Z,217.77778
2023-01-10T23:36:54.849Z,231.85047
2023-01-10T23:41:56.493Z,230.51163
2023-01-10T23:46:58.144Z,229.18519
2023-01-10T23:51:59.917Z,233.20188
2023-01-10T23:57:01.593Z,220.23318
